Latest Weather Observations for Roebourne Airport

IDW60801

Issued at 6:03 pm WST Tuesday 23 October 2018 (issued every 10 minutes, with the page automatically refreshed every 10 minutes)

About weather observations | Map of weather stations | Latest weather observations for WA | Other Formats
Station Details ID: 004090 Name: ROEBOURNE AERO Lat: -20.76 Lon: 117.16 Height: 10.7 m
Data from the previous 72 hours. | See also: Recent months at Roebourne Airport
Date/Time
WST
Temp
°C
App
Temp
°C
Dew
Point
°C
Rel
Hum
%
Delta-T
°C
Wind Press
QNH
hPa
Press
MSL
hPa
Rain since
9am
mm
Dir  Spd
km/h
Gust
km/h
Spd
kts
Gust
kts
23/06:00pm 32.7 25.9 5.3 18 14.6 WNW 30 39 16 21 1009.2 1009.2 0.0
23/05:30pm 34.6 26.7 1.1 12 16.8 W 32 46 17 25 1008.9 1008.9 0.0
23/05:00pm 35.6 27.1 0.6 11 17.5 WNW 35 46 19 25 1008.6 1008.6 0.0
23/04:30pm 36.1 27.2 1.0 11 17.7 WNW 37 43 20 23 1008.5 1008.5 0.0
23/04:00pm 36.9 28.1 1.6 11 18.1 WNW 37 46 20 25 1008.4 1008.4 0.0
23/03:30pm 37.3 28.8 3.1 12 18.0 WNW 37 46 20 25 1008.4 1008.4 0.0
23/03:00pm 37.6 30.0 5.6 14 17.5 NW 35 44 19 24 1008.5 1008.5 0.0
23/02:30pm 38.5 31.1 4.1 12 18.5 WNW 32 43 17 23 1008.8 1008.8 0.0
23/02:00pm 38.8 32.4 5.4 13 18.4 NW 28 43 15 23 1008.9 1008.9 0.0
23/01:30pm 39.0 32.1 0.4 9 19.7 NW 26 33 14 18 1009.3 1009.3 0.0
23/01:00pm 38.4 32.2 0.0 9 19.4 NW 22 33 12 18 1009.5 1009.5 0.0
23/12:30pm 37.8 32.1 -0.5 9 19.1 N 19 30 10 16 1009.9 1009.9 0.0
23/12:00pm 38.2 33.0 -0.2 9 19.3 NNW 17 28 9 15 1010.2 1010.2 0.0
23/11:30am 37.2 31.6 -2.5 8 19.1 NNE 17 28 9 15 1010.5 1010.5 0.0
23/11:00am 37.8 31.7 -2.1 8 19.4 NNE 20 28 11 15 1010.8 1010.8 0.0
23/10:30am 36.9 31.5 -1.1 9 18.7 NE 17 22 9 12 1011.1 1011.1 0.0
23/10:00am 36.5 31.3 -3.0 8 18.8 NE 15 20 8 11 1011.3 1011.3 0.0
23/09:30am 36.1 30.5 -3.3 8 18.6 ENE 17 24 9 13 1011.5 1011.5 0.0
23/09:00am 35.7 30.4 -3.6 8 18.4 E 15 20 8 11 1011.4 1011.4 0.0
23/08:30am 34.4 28.8 -3.0 9 17.5 ESE 17 22 9 12 1011.5 1011.5 0.0
23/08:00am 32.6 28.7 -1.7 11 16.2 SSE 9 13 5 7 1011.4 1011.4 0.0
23/07:30am 30.0 26.6 -0.4 14 14.4 S 7 9 4 5 1011.3 1011.3 0.0
23/07:00am 27.1 25.1 0.0 17 12.7 CALM 0 0 0 0 1011.1 1011.1 0.0
23/06:30am 22.4 20.6 1.4 25 9.7 CALM 0 0 0 0 1010.9 1010.9 0.0
23/06:00am 19.4 17.6 1.4 30 8.1 CALM 0 0 0 0 1010.5 1010.5 0.0
23/05:30am 18.1 16.4 1.6 33 7.4 CALM 0 0 0 0 1010.2 1010.2 0.0
23/05:00am 18.4 16.3 1.4 32 7.6 WNW 2 7 1 4 1009.8 1009.8 0.0
23/04:30am 21.6 17.3 0.8 25 9.5 SW 13 15 7 8 1009.5 1009.5 0.0
23/04:00am 21.2 17.7 1.0 26 9.2 SW 9 11 5 6 1009.3 1009.3 0.0
23/03:30am 22.6 18.3 1.0 24 9.9 SW 13 15 7 8 1009.0 1009.0 0.0
23/03:00am 22.7 18.6 2.2 26 9.7 SW 13 13 7 7 1008.8 1008.8 0.0
23/02:30am 23.9 20.1 3.8 27 9.8 SW 13 17 7 9 1009.0 1009.0 0.0
23/02:00am 23.9 19.7 5.8 31 9.2 SW 17 17 9 9 1009.0 1009.0 0.0
23/01:30am 23.1 19.2 7.2 36 8.3 SW 17 20 9 11 1009.4 1009.4 0.0
23/01:00am 23.3 19.4 7.0 35 8.4 SSW 17 19 9 10 1009.8 1009.8 0.0
23/12:30am 25.2 22.1 7.3 32 9.4 SW 13 19 7 10 1010.2 1010.2 0.0
23/12:00am 26.0 22.2 7.6 31 9.8 SW 17 20 9 11 1010.5 1010.5 0.0
 
Date/Time
WST
Temp
°C
App
Temp
°C
Dew
Point
°C
Rel
Hum
%
Delta-T
°C
Wind Press
QNH
hPa
Press
MSL
hPa
Rain since
9am
mm
Dir  Spd
km/h
Gust
km/h
Spd
kts
Gust
kts
22/11:30pm 26.2 22.4 7.7 31 9.9 WSW 17 20 9 11 1010.9 1010.9 0.0
22/11:00pm 26.6 23.2 7.6 30 10.1 WSW 15 20 8 11 1011.4 1011.4 0.0
22/10:30pm 27.8 24.5 8.1 29 10.7 WSW 15 20 8 11 1011.6 1011.6 0.0
22/10:00pm 27.8 24.4 9.1 31 10.3 W 17 24 9 13 1011.5 1011.5 0.0
22/09:30pm 27.6 24.3 10.8 35 9.5 W 19 24 10 13 1011.4 1011.4 0.0
22/09:00pm 28.1 24.4 11.6 36 9.5 W 22 28 12 15 1011.3 1011.3 0.0
22/08:30pm 28.5 25.1 12.4 37 9.4 W 22 28 12 15 1011.1 1011.1 0.0
22/08:00pm 29.0 25.4 13.2 37 9.4 W 24 32 13 17 1010.9 1010.9 0.0
22/07:30pm 29.6 25.7 12.1 34 10.2 WNW 24 30 13 16 1010.8 1010.8 0.0
22/07:00pm 30.6 25.6 11.1 30 11.3 WNW 28 35 15 19 1010.5 1010.5 0.0
22/06:30pm 31.6 25.7 9.2 25 12.6 WNW 30 37 16 20 1010.2 1010.2 0.0
22/06:00pm 32.9 25.9 7.0 20 14.2 WNW 33 44 18 24 1009.9 1009.9 0.0
22/05:30pm 34.3 26.2 3.0 14 16.2 WNW 35 46 19 25 1009.6 1009.6 0.0
22/05:00pm 35.5 27.1 3.9 14 16.7 WNW 37 46 20 25 1009.3 1009.3 0.0
22/04:30pm 35.5 26.2 2.9 13 16.9 WNW 41 48 22 26 1009.3 1009.3 0.0
22/04:00pm 36.6 27.6 2.6 12 17.7 WNW 39 50 21 27 1009.2 1009.2 0.0
22/03:30pm 37.2 28.5 1.8 11 18.2 NW 37 46 20 25 1009.2 1009.2 0.0
22/03:00pm 37.7 29.8 4.6 13 17.9 WNW 35 46 19 25 1009.2 1009.2 0.0
22/02:30pm 38.4 30.6 5.1 13 18.2 WNW 35 46 19 25 1009.5 1009.5 0.0
22/02:00pm 39.1 31.1 0.5 9 19.7 WNW 32 39 17 21 1009.9 1009.9 0.0
22/01:30pm 39.1 31.6 -1.1 8 20.0 WNW 28 39 15 21 1010.3 1010.3 0.0
22/01:00pm 39.8 32.0 -0.6 8 20.4 NW 30 39 16 21 1010.6 1010.6 0.0
22/12:30pm 40.4 33.7 1.4 9 20.3 NNW 26 33 14 18 1010.9 1010.9 0.0
22/12:00pm 39.0 33.6 4.4 12 18.7 N 22 32 12 17 1011.2 1011.2 0.0
22/11:30am 38.8 34.0 0.3 9 19.6 WNW 15 26 8 14 1011.8 1011.8 0.0
22/11:00am 39.0 34.8 -1.2 8 20.0 W 11 19 6 10 1012.2 1012.2 0.0
22/10:30am 37.3 34.0 -0.9 9 18.9 ESE 6 9 3 5 1012.6 1012.6 0.0
22/10:00am 36.8 32.6 -1.2 9 18.6 SE 11 17 6 9 1012.9 1012.9 0.0
22/09:30am 35.9 31.8 -0.5 10 17.9 SE 11 15 6 8 1013.1 1013.1 0.0
22/09:00am 35.0 31.2 -1.1 10 17.5 ESE 9 17 5 9 1013.1 1013.1 0.0
22/08:30am 32.9 30.1 1.9 14 15.6 SE 6 9 3 5 1013.1 1013.1 0.0
22/08:00am 31.3 28.4 1.6 15 14.7 SSE 6 9 3 5 1013.0 1013.0 0.0
22/07:30am 29.5 26.6 2.7 18 13.4 SSW 7 9 4 5 1012.7 1012.7 0.0
22/07:00am 26.6 25.8 8.1 31 10.0 SW 2 7 1 4 1012.4 1012.4 0.0
22/06:30am 22.3 22.6 10.8 48 6.3 CALM 0 7 0 4 1012.1 1012.1 0.0
22/06:00am 19.8 19.0 11.0 57 4.8 SW 6 7 3 4 1011.9 1011.9 0.0
22/05:30am 20.1 19.5 11.8 59 4.6 SW 6 7 3 4 1011.5 1011.5 0.0
22/05:00am 19.4 17.9 10.7 57 4.7 SW 9 11 5 6 1011.2 1011.2 0.0
22/04:30am 22.4 20.4 11.5 50 6.1 WSW 13 15 7 8 1011.0 1011.0 0.0
22/04:00am 19.8 18.8 13.5 67 3.6 WSW 11 13 6 7 1010.8 1010.8 0.0
22/03:30am 20.9 20.6 14.5 67 3.7 W 9 11 5 6 1010.7 1010.7 0.0
22/03:00am 21.1 21.4 16.1 73 3.0 WNW 9 11 5 6 1010.6 1010.6 0.0
22/02:30am 20.6 21.1 14.9 70 3.4 WNW 6 11 3 6 1010.8 1010.8 0.0
22/02:00am 22.1 23.0 16.6 71 3.3 W 7 9 4 5 1010.8 1010.8 0.0
22/01:30am 23.4 23.7 17.8 71 3.5 WSW 13 17 7 9 1010.8 1010.8 0.0
22/01:00am 23.4 24.5 17.2 68 3.8 SW 7 11 4 6 1011.0 1011.0 0.0
22/12:30am 24.2 24.4 17.7 67 4.1 W 13 17 7 9 1011.3 1011.3 0.0
22/12:00am 24.7 24.9 17.7 65 4.4 W 13 19 7 10 1011.5 1011.5 0.0
 
Date/Time
WST
Temp
°C
App
Temp
°C
Dew
Point
°C
Rel
Hum
%
Delta-T
°C
Wind Press
QNH
hPa
Press
MSL
hPa
Rain since
9am
mm
Dir  Spd
km/h
Gust
km/h
Spd
kts
Gust
kts
21/11:30pm 25.0 24.9 17.0 61 5.0 W 13 17 7 9 1011.7 1011.7 0.0
21/11:00pm 25.1 25.2 16.5 59 5.3 W 11 19 6 10 1012.0 1012.0 0.0
21/10:30pm 25.4 24.0 16.5 58 5.5 W 19 20 10 11 1012.2 1012.2 0.0
21/10:00pm 25.7 24.0 16.3 56 5.8 W 20 24 11 13 1012.2 1012.2 0.0
21/09:30pm 26.1 24.6 16.4 55 6.0 W 19 22 10 12 1012.1 1012.1 0.0
21/09:00pm 26.7 24.6 16.3 53 6.4 W 22 30 12 16 1011.9 1011.9 0.0
21/08:30pm 26.9 25.3 17.4 56 6.0 W 22 32 12 17 1011.9 1011.9 0.0
21/08:00pm 27.3 24.3 16.9 53 6.5 WNW 28 37 15 20 1011.5 1011.5 0.0
21/07:30pm 27.8 23.9 15.5 47 7.5 WNW 30 37 16 20 1011.3 1011.3 0.0
21/07:00pm 28.9 24.2 13.2 38 9.3 WNW 30 39 16 21 1010.9 1010.9 0.0
21/06:30pm 29.4 26.0 15.9 44 8.4 WNW 28 35 15 19 1010.5 1010.5 0.0
21/06:00pm 31.1 26.9 13.4 34 10.6 WNW 28 33 15 18 1010.1 1010.1 0.0
21/05:30pm 33.4 28.3 10.7 25 13.2 WNW 28 35 15 19 1009.7 1009.7 0.0
21/05:00pm 35.0 29.4 10.1 22 14.4 WNW 30 35 16 19 1009.5 1009.5 0.0
21/04:30pm 36.6 29.4 4.8 14 17.1 WNW 32 39 17 21 1009.6 1009.6 0.0
21/04:00pm 37.1 29.5 3.0 12 17.9 NW 32 41 17 22 1009.4 1009.4 0.0
21/03:30pm 38.1 31.1 6.0 14 17.7 NW 32 39 17 21 1009.6 1009.6 0.0
21/03:00pm 38.2 31.2 6.0 14 17.8 WNW 32 41 17 22 1009.7 1009.7 0.0
21/02:30pm 38.3 30.9 3.9 12 18.4 NW 32 39 17 21 1009.9 1009.9 0.0
21/02:00pm 37.5 32.0 9.2 18 16.4 NW 28 37 15 20 1010.3 1010.3 0.0
21/01:30pm 37.1 32.6 12.5 23 14.9 NNW 28 39 15 21 1010.7 1010.7 0.0
21/01:00pm 39.3 34.2 10.6 18 17.1 NW 28 39 15 21 1011.0 1011.0 0.0
21/12:30pm 39.4 34.0 2.2 10 19.5 W 20 30 11 16 1011.5 1011.5 0.0
21/12:00pm 39.4 34.5 2.2 10 19.5 W 17 24 9 13 1011.9 1011.9 0.0
21/11:30am 39.1 34.0 0.5 9 19.7 WSW 17 28 9 15 1012.4 1012.4 0.0
21/11:00am 36.4 31.7 -1.5 9 18.4 WNW 13 20 7 11 1013.0 1013.0 0.0
21/10:30am 36.0 32.4 0.9 11 17.7 WSW 9 20 5 11 1013.3 1013.3 0.0
21/10:00am 34.7 31.2 1.1 12 16.9 SW 9 17 5 9 1013.8 1013.7 0.0
21/09:30am 33.7 30.5 5.3 17 15.2 WSW 11 17 6 9 1014.1 1014.0 0.0
21/09:00am 31.9 29.3 6.2 20 13.8 SW 9 15 5 8 1014.3 1014.2 0.0
21/08:30am 29.7 27.9 9.3 28 11.4 SW 9 13 5 7 1014.4 1014.3 0.0
21/08:00am 27.7 26.7 10.9 35 9.5 SW 7 11 4 6 1014.4 1014.3 0.0
21/07:30am 25.0 24.2 12.9 47 7.0 SW 9 13 5 7 1014.3 1014.2 0.0
21/07:00am 23.4 22.3 14.4 57 5.3 SW 13 17 7 9 1014.2 1014.1 0.0
21/06:30am 20.8 20.9 15.6 72 3.1 SW 9 11 5 6 1014.0 1013.9 0.0
21/06:00am 16.6 15.8 11.7 73 2.7 WSW 7 11 4 6 1013.7 1013.6 0.0
21/05:30am 15.5 13.9 11.5 77 2.2 SW 11 13 6 7 1013.2 1013.2 0.0
21/05:00am 16.0 15.4 12.4 79 2.0 WSW 7 7 4 4 1012.9 1012.9 0.0
21/04:30am 16.6 17.5 12.8 78 2.1 CALM 0 0 0 0 1012.8 1012.8 0.0
21/04:00am 17.7 17.4 13.2 75 2.5 W 7 9 4 5 1012.7 1012.7 0.0
21/03:30am 18.9 18.2 14.2 74 2.7 W 11 13 6 7 1012.7 1012.7 0.0
21/03:00am 18.8 19.3 14.9 78 2.3 NW 6 9 3 5 1012.6 1012.6 0.0
21/02:30am 19.3 19.8 15.0 76 2.5 W 6 7 3 4 1012.6 1012.6 0.0
21/02:00am 19.5 19.7 15.8 79 2.2 SW 9 9 5 5 1012.5 1012.5 0.0
21/01:30am 20.6 22.4 16.4 77 2.5 SW 2 7 1 4 1012.7 1012.7 0.0
21/01:00am 20.8 21.8 16.8 78 2.4 W 7 11 4 6 1013.0 1013.0 0.0
21/12:30am 21.7 22.6 17.5 77 2.6 W 9 13 5 7 1013.4 1013.4 0.0
21/12:00am 22.8 22.8 18.1 75 2.9 W 15 20 8 11 1013.8 1013.7 0.0
 
Date/Time
WST
Temp
°C
App
Temp
°C
Dew
Point
°C
Rel
Hum
%
Delta-T
°C
Wind Press
QNH
hPa
Press
MSL
hPa
Rain since
9am
mm
Dir  Spd
km/h
Gust
km/h
Spd
kts
Gust
kts
20/11:30pm 23.4 22.7 18.3 73 3.2 WSW 19 22 10 12 1014.1 1014.0 0.0
20/11:00pm 23.1 23.6 18.4 75 3.0 WSW 13 20 7 11 1014.5 1014.4 0.0
20/10:30pm 22.0 21.8 14.6 63 4.4 SW 9 11 5 6 1014.8 1014.7 0.0
20/10:00pm 22.0 21.5 13.9 60 4.7 SW 9 11 5 6 1015.0 1014.9 0.0
20/09:30pm 23.0 22.9 14.0 57 5.3 SW 7 11 4 6 1015.1 1015.0 0.0
20/09:00pm 24.7 24.2 14.8 54 5.9 W 11 15 6 8 1015.2 1015.1 0.0
20/08:30pm 24.2 23.7 13.7 52 6.1 WNW 9 11 5 6 1015.0 1014.9 0.0
20/08:00pm 24.6 25.2 15.2 55 5.6 WNW 6 7 3 4 1014.6 1014.5 0.0
20/07:30pm 25.6 24.9 15.3 53 6.2 NW 13 15 7 8 1014.4 1014.3 0.0
20/07:00pm 26.9 25.2 14.6 46 7.4 WNW 17 20 9 11 1014.0 1013.9 0.0
20/06:30pm 27.9 24.2 10.1 33 10.0 WNW 20 22 11 12 1013.6 1013.5 0.0

Other Formats:

Comma delimited format used in spreadsheet applications
http://www.bom.gov.au/fwo/IDW60801/IDW60801.94308.axf

JavaScript Object Notation format (JSON) in row-major order
http://www.bom.gov.au/fwo/IDW60801/IDW60801.94308.json